Terminal Aerodrome Forecast
Issued by NWS

Home | Current Version | Previous Version | Text Only | Print | Product List | Glossary On
Versions: 1 2 3 4 5 6 7 8 9 10 11 12 13
000
FTAK31 PAJN 211100
TAFAPG
TAF
PAPG 211125Z 2112/2212 VRB04KT P6SM VCSH BKN025 OVC045
     FM211800 06005KT P6SM VCSH BKN050 BKN080
     FM220300 VRB03KT P6SM VCFG SCT002
      AMD NOT SKED=

USA.gov is the U.S. government's official web portal to all federal, state and local government web resources and services.